Time;durP1;ratioP1;P1;durP2;ratioP2;P2;SDS_P1;SDS_P2;PMS_P1;PMS_P2;Temp;Humidity;BMP_temperature;BMP_pressure;BME280_temperature;BME280_humidity;BME280_pressure;Samples;Min_cycle;Max_cycle;Signal;HPM_P1;HPM_P2
2022/05/21 00:00:20;;;;;;;10.43;7.93;;;19.40;99.90;;;;;;5029640;28;20036;-80
2022/05/21 00:02:47;;;;;;;18.40;8.88;;;19.40;99.90;;;;;;5035292;28;20028;-80
2022/05/21 00:05:15;;;;;;;21.13;10.10;;;18.30;99.90;;;;;;5031051;28;20109;-80
2022/05/21 00:07:42;;;;;;;16.92;9.48;;;17.70;99.90;;;;;;5032386;28;20132;-81
2022/05/21 00:10:09;;;;;;;20.58;10.77;;;17.30;99.90;;;;;;5015331;28;20052;-80
2022/05/21 00:12:35;;;;;;;18.42;10.52;;;17.10;99.90;;;;;;5024502;28;20073;-80
2022/05/21 00:15:02;;;;;;;17.38;9.70;;;17.10;99.90;;;;;;5039542;28;20029;-83
2022/05/21 00:17:27;;;;;;;17.58;10.05;;;17.20;99.90;;;;;;5040929;28;20033;-80
2022/05/21 00:19:53;;;;;;;19.80;11.63;;;17.30;99.90;;;;;;5038799;28;20047;-80
2022/05/21 00:22:19;;;;;;;20.05;11.50;;;17.00;99.90;;;;;;5041084;28;20114;-80
2022/05/21 00:24:44;;;;;;;17.42;10.40;;;17.00;99.90;;;;;;5040053;28;20033;-79
2022/05/21 00:27:11;;;;;;;19.55;10.85;;;16.70;99.90;;;;;;5032144;28;20029;-80
2022/05/21 00:29:37;;;;;;;19.95;10.57;;;16.80;99.90;;;;;;5017813;28;20037;-81
2022/05/21 00:32:03;;;;;;;19.77;11.13;;;16.60;99.90;;;;;;5033097;28;20539;-79
2022/05/21 00:34:30;;;;;;;19.38;12.07;;;16.70;99.90;;;;;;5032608;28;20029;-80
2022/05/21 00:36:56;;;;;;;26.48;12.40;;;16.70;99.90;;;;;;5026267;28;20041;-78
2022/05/21 00:39:21;;;;;;;18.38;11.50;;;16.90;99.90;;;;;;5027987;28;20029;-80
2022/05/21 00:41:48;;;;;;;25.27;13.55;;;16.80;99.90;;;;;;5028909;28;20148;-81
2022/05/21 00:44:14;;;;;;;18.75;11.52;;;16.90;99.90;;;;;;5036493;28;20034;-80
2022/05/21 00:46:42;;;;;;;22.40;13.80;;;16.90;99.90;;;;;;5042700;28;20542;-80
2022/05/21 00:49:27;;;;;;;21.38;12.00;;;16.90;99.90;;;;;;5035042;28;20037;-80
2022/05/21 00:51:55;;;;;;;19.38;11.43;;;16.90;99.90;;;;;;5035384;28;20028;-80
2022/05/21 00:54:26;;;;;;;21.45;11.57;;;16.90;99.90;;;;;;5036973;28;20029;-80
2022/05/21 00:56:57;;;;;;;24.50;13.20;;;16.90;99.90;;;;;;5033622;28;20099;-80
2022/05/21 01:02:10;;;;;;;26.80;13.30;;;16.90;99.90;;;;;;5024998;28;20048;-80
2022/05/21 01:04:37;;;;;;;19.98;11.25;;;16.90;99.90;;;;;;5016068;28;20112;-80
2022/05/21 01:07:04;;;;;;;22.77;13.35;;;16.80;99.90;;;;;;5025476;28;20044;-81
2022/05/21 01:09:33;;;;;;;24.45;13.48;;;16.80;99.90;;;;;;5025262;28;20258;-80
2022/05/21 01:12:02;;;;;;;20.17;12.60;;;16.90;99.90;;;;;;5037612;28;20018;-80
2022/05/21 01:14:29;;;;;;;22.48;13.88;;;16.80;99.90;;;;;;5032495;28;20496;-80
2022/05/21 01:16:55;;;;;;;28.63;15.10;;;16.80;99.90;;;;;;5042735;28;20021;-81
2022/05/21 01:19:21;;;;;;;25.42;14.20;;;16.80;99.90;;;;;;5039044;28;20407;-80
2022/05/21 01:21:47;;;;;;;22.88;13.77;;;16.80;99.90;;;;;;5040446;28;20039;-80
2022/05/21 01:24:13;;;;;;;30.92;16.48;;;16.80;99.90;;;;;;5034034;28;20484;-80
2022/05/21 01:26:40;;;;;;;25.35;14.27;;;16.80;99.90;;;;;;5033744;28;20040;-80
2022/05/21 01:29:28;;;;;;;24.02;13.65;;;16.80;99.90;;;;;;5030880;28;20396;-80
2022/05/21 01:31:54;;;;;;;20.95;12.05;;;16.70;99.90;;;;;;5033639;28;20037;-80
2022/05/21 01:34:21;;;;;;;36.50;14.93;;;16.70;99.90;;;;;;5031138;28;20102;-81
2022/05/21 01:36:47;;;;;;;28.85;14.68;;;16.70;99.90;;;;;;5027990;28;20417;-80
2022/05/21 01:39:14;;;;;;;36.80;14.68;;;16.70;99.90;;;;;;5023983;28;20042;-80
2022/05/21 01:41:46;;;;;;;26.27;13.07;;;16.70;99.90;;;;;;5035682;28;20047;-81
2022/05/21 01:46:56;;;;;;;29.67;14.05;;;16.70;99.90;;;;;;5029949;28;20052;-80
2022/05/21 01:49:22;;;;;;;26.05;13.98;;;16.70;99.90;;;;;;5061759;28;20025;-80
2022/05/21 01:51:48;;;;;;;28.52;14.18;;;16.60;99.90;;;;;;5059174;28;20642;-79
2022/05/21 01:54:13;;;;;;;26.05;14.93;;;16.60;99.90;;;;;;5052188;28;20114;-79
2022/05/21 01:56:39;;;;;;;22.98;12.57;;;16.60;99.90;;;;;;5056177;28;20061;-80
2022/05/21 01:59:06;;;;;;;21.10;11.60;;;16.60;99.90;;;;;;5054266;28;20506;-81
2022/05/21 02:01:32;;;;;;;23.63;11.48;;;16.50;99.90;;;;;;5055486;28;20021;-79
2022/05/21 02:03:58;;;;;;;20.65;10.98;;;16.40;99.90;;;;;;5053555;28;20507;-79
2022/05/21 02:06:23;;;;;;;24.52;10.82;;;16.20;99.90;;;;;;5051714;28;20041;-78
2022/05/21 02:08:49;;;;;;;18.45;10.95;;;16.20;99.90;;;;;;5050609;28;20033;-79
2022/05/21 02:11:14;;;;;;;19.77;10.52;;;16.10;99.90;;;;;;5048464;28;20033;-80
2022/05/21 02:13:40;;;;;;;18.75;10.15;;;16.10;99.90;;;;;;5068478;28;20077;-80
2022/05/21 02:16:06;;;;;;;17.33;10.05;;;15.90;99.90;;;;;;5056922;28;20029;-79
2022/05/21 02:18:31;;;;;;;19.23;9.85;;;16.00;99.90;;;;;;5052461;28;20570;-79
2022/05/21 02:20:57;;;;;;;19.00;10.52;;;15.90;99.90;;;;;;5053049;28;20033;-79
2022/05/21 02:23:23;;;;;;;21.40;10.32;;;16.10;99.90;;;;;;5047173;28;20013;-81
2022/05/21 02:25:50;;;;;;;15.35;9.93;;;16.00;99.90;;;;;;5048249;28;20029;-80
2022/05/21 02:28:16;;;;;;;17.95;10.50;;;16.00;99.90;;;;;;5037091;28;20029;-81
2022/05/21 02:30:43;;;;;;;16.38;9.65;;;16.00;99.90;;;;;;5056381;28;20085;-80
2022/05/21 02:33:09;;;;;;;18.70;9.80;;;16.00;99.90;;;;;;5060122;28;20009;-79
2022/05/21 02:35:34;;;;;;;18.02;10.57;;;16.00;99.90;;;;;;5056876;28;20016;-80
2022/05/21 02:40:45;;;;;;;22.52;10.43;;;16.00;99.90;;;;;;5045373;28;20131;-78
2022/05/21 02:43:10;;;;;;;20.80;10.18;;;16.00;99.90;;;;;;5044915;28;20033;-79
2022/05/21 02:45:36;;;;;;;19.00;10.38;;;16.00;99.90;;;;;;5045408;28;20030;-78
2022/05/21 02:48:02;;;;;;;18.98;9.32;;;16.00;99.90;;;;;;5059472;28;20014;-79
2022/05/21 02:50:32;;;;;;;14.45;9.15;;;15.90;99.90;;;;;;5062540;28;20047;-79
2022/05/21 02:52:58;;;;;;;;;;;15.90;99.90;;;;;;5058426;28;20041;-78
2022/05/21 02:55:24;;;;;;;16.25;8.55;;;15.90;99.90;;;;;;5052506;28;19924;-78
2022/05/21 02:57:50;;;;;;;17.55;9.20;;;15.80;99.90;;;;;;5052383;28;20254;-79
2022/05/21 03:00:19;;;;;;;14.93;8.20;;;15.80;99.90;;;;;;5052831;28;20037;-79
2022/05/21 03:02:45;;;;;;;12.23;8.13;;;15.70;99.90;;;;;;5055472;28;20053;-79
2022/05/21 03:05:11;;;;;;;24.77;9.23;;;15.70;99.90;;;;;;5055352;28;20029;-80
2022/05/21 03:07:43;;;;;;;20.17;8.60;;;15.60;99.90;;;;;;5051812;28;20032;-80
2022/05/21 03:10:23;;;;;;;15.80;8.40;;;15.50;99.90;;;;;;5055301;28;20009;-80
2022/05/21 03:12:53;;;;;;;15.85;9.05;;;15.40;99.90;;;;;;5067578;28;20038;-80
2022/05/21 03:15:22;;;;;;;23.63;9.40;;;15.40;99.90;;;;;;5062048;28;20060;-81
2022/05/21 03:17:47;;;;;;;17.30;9.50;;;15.30;99.90;;;;;;5069744;28;20017;-79
2022/05/21 03:20:15;;;;;;;15.07;8.80;;;15.30;99.90;;;;;;5065519;28;20060;-78
2022/05/21 03:22:41;;;;;;;15.77;8.60;;;15.30;99.90;;;;;;5064141;28;20123;-80
2022/05/21 03:25:08;;;;;;;16.73;7.97;;;15.20;99.90;;;;;;5054237;28;20038;-80
2022/05/21 03:27:34;;;;;;;19.13;9.15;;;15.10;99.90;;;;;;5059998;28;20105;-80
2022/05/21 03:30:01;;;;;;;16.60;9.40;;;15.10;99.90;;;;;;5054378;28;20025;-80
2022/05/21 03:32:27;;;;;;;15.43;8.70;;;15.00;99.90;;;;;;5041922;28;20033;-78
2022/05/21 03:34:53;;;;;;;14.88;8.57;;;15.00;99.90;;;;;;5058350;28;20085;-78
2022/05/21 03:37:18;;;;;;;21.63;11.60;;;14.90;99.90;;;;;;5031653;28;20068;-78
2022/05/21 03:39:44;;;;;;;15.30;9.77;;;14.90;99.90;;;;;;5028568;28;20616;-80
2022/05/21 03:42:10;;;;;;;22.25;10.25;;;14.90;99.90;;;;;;5045440;28;20374;-80
2022/05/21 03:44:36;;;;;;;20.85;9.60;;;14.90;99.90;;;;;;5041462;28;20025;-79
2022/05/21 03:47:02;;;;;;;14.15;9.25;;;14.80;99.90;;;;;;5038027;28;20033;-80
2022/05/21 03:49:28;;;;;;;17.13;9.45;;;14.80;99.90;;;;;;5039841;28;20112;-80
2022/05/21 03:51:54;;;;;;;18.30;8.25;;;14.80;99.90;;;;;;5040455;28;20226;-80
2022/05/21 03:54:19;;;;;;;19.20;10.65;;;14.80;99.90;;;;;;5039296;28;20034;-80
2022/05/21 03:56:45;;;;;;;20.88;9.57;;;14.80;99.90;;;;;;5042064;28;20153;-80
2022/05/21 03:59:11;;;;;;;19.55;9.18;;;14.80;99.90;;;;;;5066158;28;20029;-80
2022/05/21 04:01:37;;;;;;;17.55;9.68;;;14.80;99.90;;;;;;5033007;28;20670;-80
2022/05/21 04:04:06;;;;;;;18.20;9.73;;;14.80;99.90;;;;;;5024933;28;20497;-80
2022/05/21 04:06:31;;;;;;;16.35;8.07;;;14.80;99.90;;;;;;5031214;28;20550;-80
2022/05/21 04:08:57;;;;;;;19.35;9.93;;;14.90;99.90;;;;;;5023060;28;20060;-80
2022/05/21 04:11:23;;;;;;;18.13;9.73;;;14.90;99.90;;;;;;5035290;28;20160;-80
2022/05/21 04:13:48;;;;;;;18.85;10.27;;;14.90;99.90;;;;;;5037078;28;20096;-80
2022/05/21 04:16:14;;;;;;;16.05;9.10;;;14.90;99.90;;;;;;5037481;28;20163;-80
2022/05/21 04:18:40;;;;;;;18.50;8.57;;;15.00;99.90;;;;;;5037057;28;20037;-80
2022/05/21 04:21:05;;;;;;;17.90;9.50;;;15.00;99.90;;;;;;5033036;28;20029;-80
2022/05/21 04:23:31;;;;;;;28.77;11.32;;;15.00;99.90;;;;;;5035298;28;20073;-79
2022/05/21 04:25:57;;;;;;;16.85;9.57;;;15.00;99.90;;;;;;5036874;28;20406;-80
2022/05/21 04:28:25;;;;;;;19.08;10.98;;;15.00;99.90;;;;;;5035630;28;20032;-79
2022/05/21 04:30:51;;;;;;;17.83;9.27;;;15.00;99.90;;;;;;5015235;28;20041;-79
2022/05/21 04:33:16;;;;;;;15.48;9.95;;;15.00;99.90;;;;;;5012599;28;20546;-79
2022/05/21 04:38:26;;;;;;;15.50;9.02;;;15.10;99.90;;;;;;5020342;28;20108;-80
2022/05/21 04:40:52;;;;;;;23.50;9.95;;;15.20;99.90;;;;;;5035029;28;20120;-82
2022/05/21 04:43:17;;;;;;;17.88;9.77;;;15.10;99.90;;;;;;5021791;28;20029;-80
2022/05/21 04:45:43;;;;;;;16.65;10.27;;;15.20;99.90;;;;;;5029217;28;20075;-81
2022/05/21 04:48:09;;;;;;;18.70;9.02;;;15.30;99.90;;;;;;5025699;28;20040;-81
2022/05/21 04:50:38;;;;;;;15.45;9.70;;;15.30;99.90;;;;;;5036163;28;20029;-80
2022/05/21 04:53:04;;;;;;;21.98;10.73;;;15.30;99.90;;;;;;5040303;28;20025;-80
2022/05/21 04:55:29;;;;;;;21.80;11.07;;;15.40;99.90;;;;;;5035034;28;20045;-80
2022/05/21 04:57:55;;;;;;;18.17;9.68;;;15.50;99.90;;;;;;5033829;28;20079;-80
2022/05/21 05:00:21;;;;;;;20.08;10.55;;;15.50;99.90;;;;;;5029190;28;20067;-80
2022/05/21 05:02:46;;;;;;;15.77;9.95;;;15.60;99.90;;;;;;5033232;28;20045;-80
2022/05/21 05:05:13;;;;;;;17.50;11.02;;;15.60;99.90;;;;;;5026832;28;20115;-80
2022/05/21 05:07:39;;;;;;;16.00;8.68;;;15.60;99.90;;;;;;5028450;28;20045;-80
2022/05/21 05:10:06;;;;;;;16.90;9.85;;;15.70;99.90;;;;;;5033950;28;20025;-80
2022/05/21 05:12:32;;;;;;;18.75;10.00;;;15.80;99.90;;;;;;5038516;28;20075;-80
2022/05/21 05:14:59;;;;;;;19.45;9.80;;;15.80;99.90;;;;;;5029519;28;20032;-80
2022/05/21 05:17:24;;;;;;;21.10;10.75;;;15.70;99.90;;;;;;5018965;28;20100;-78
2022/05/21 05:19:54;;;;;;;17.88;9.43;;;15.70;99.90;;;;;;5038813;28;20124;-79
2022/05/21 05:22:20;;;;;;;20.58;9.52;;;15.70;99.90;;;;;;5029330;28;20025;-79
2022/05/21 05:24:46;;;;;;;19.75;9.02;;;15.60;99.90;;;;;;5034911;28;20030;-79
2022/05/21 05:27:12;;;;;;;15.10;9.48;;;15.60;99.90;;;;;;5031037;28;20492;-79
2022/05/21 05:29:37;;;;;;;17.08;9.63;;;15.60;99.90;;;;;;5026071;28;20409;-79
2022/05/21 05:32:04;;;;;;;16.25;8.63;;;15.60;99.90;;;;;;5033020;28;20032;-81
2022/05/21 05:34:30;;;;;;;13.20;8.85;;;15.60;99.90;;;;;;5018308;28;20037;-82
2022/05/21 05:36:55;;;;;;;14.52;7.95;;;15.70;99.90;;;;;;5016080;28;20381;-82
2022/05/21 05:39:22;;;;;;;17.02;9.65;;;15.80;99.90;;;;;;5033974;28;20033;-82
2022/05/21 05:41:48;;;;;;;16.85;8.85;;;15.80;99.90;;;;;;5037488;28;20444;-82
2022/05/21 05:44:13;;;;;;;19.17;8.75;;;15.70;99.90;;;;;;5021779;28;20040;-83
2022/05/21 05:46:39;;;;;;;18.85;8.15;;;15.80;99.90;;;;;;5028817;28;20037;-82
2022/05/21 05:49:05;;;;;;;17.77;8.48;;;15.60;99.90;;;;;;5021924;28;20417;-84
2022/05/21 05:51:32;;;;;;;15.68;9.80;;;15.40;99.90;;;;;;5028320;28;20032;-82
2022/05/21 05:53:57;;;;;;;12.55;8.27;;;15.20;99.90;;;;;;5028905;28;20026;-78
2022/05/21 05:56:23;;;;;;;12.35;7.78;;;15.20;99.90;;;;;;5033874;28;20044;-79
2022/05/21 06:01:34;;;;;;;12.23;8.27;;;15.10;99.90;;;;;;5034411;28;20075;-79
2022/05/21 06:04:00;;;;;;;14.45;7.30;;;14.90;99.90;;;;;;5032624;28;20477;-81
2022/05/21 06:06:25;;;;;;;13.63;7.65;;;14.90;99.90;;;;;;5026788;28;20034;-81
2022/05/21 06:08:52;;;;;;;11.73;7.95;;;15.00;99.90;;;;;;5022138;28;20056;-81
2022/05/21 06:11:18;;;;;;;10.35;6.80;;;15.00;99.90;;;;;;5036546;28;20086;-81
2022/05/21 06:13:44;;;;;;;13.00;7.05;;;14.90;99.90;;;;;;5033243;28;20108;-81
2022/05/21 06:16:10;;;;;;;13.18;7.38;;;14.70;99.90;;;;;;5034087;28;20037;-82
2022/05/21 06:18:37;;;;;;;10.95;6.10;;;14.70;99.90;;;;;;5033497;28;20044;-81
2022/05/21 06:21:05;;;;;;;13.50;7.25;;;14.70;99.90;;;;;;5031363;28;20029;-80
2022/05/21 06:23:33;;;;;;;15.15;6.78;;;14.30;99.90;;;;;;5037610;28;20017;-79
2022/05/21 06:26:00;;;;;;;10.35;6.57;;;14.20;99.90;;;;;;5032902;28;20032;-82
2022/05/21 06:28:29;;;;;;;15.30;7.13;;;14.30;99.90;;;;;;5037298;28;20078;-80
2022/05/21 06:30:55;;;;;;;16.52;7.18;;;14.50;99.90;;;;;;5034294;28;20070;-80
2022/05/21 06:33:27;;;;;;;10.45;6.63;;;14.30;99.90;;;;;;5028767;28;20029;-80
2022/05/21 06:36:06;;;;;;;11.25;6.50;;;14.40;99.90;;;;;;5031898;28;20090;-80
2022/05/21 06:38:34;;;;;;;9.52;6.20;;;14.50;99.90;;;;;;5029371;28;20079;-85
2022/05/21 06:41:00;;;;;;;10.23;5.95;;;14.60;99.90;;;;;;5034629;28;20028;-81
2022/05/21 06:43:26;;;;;;;12.35;7.22;;;14.70;99.90;;;;;;5036687;28;20029;-81
2022/05/21 06:45:51;;;;;;;11.95;5.70;;;14.60;99.90;;;;;;5032783;28;20396;-82
2022/05/21 06:48:17;;;;;;;8.90;5.85;;;14.70;99.90;;;;;;5034780;28;20033;-80
2022/05/21 06:50:43;;;;;;;11.70;7.07;;;14.60;99.90;;;;;;5028831;28;20050;-81
2022/05/21 06:53:09;;;;;;;10.48;5.40;;;14.60;99.90;;;;;;5009352;28;20943;-80
2022/05/21 06:55:34;;;;;;;10.35;5.40;;;14.70;99.90;;;;;;5025148;28;20063;-79
2022/05/21 06:58:00;;;;;;;10.02;5.15;;;14.70;99.90;;;;;;5020781;28;20037;-80
2022/05/21 07:00:26;;;;;;;8.45;4.65;;;14.50;99.90;;;;;;5019361;28;20170;-79
2022/05/21 07:02:54;;;;;;;9.00;5.15;;;14.50;99.90;;;;;;5063287;28;20148;-82
2022/05/21 07:08:15;;;;;;;11.13;5.30;;;14.60;99.90;;;;;;5033862;28;20040;-80
2022/05/21 07:10:40;;;;;;;7.38;5.20;;;14.70;99.90;;;;;;5035224;28;20037;-81
2022/05/21 07:13:06;;;;;;;8.25;4.75;;;14.70;99.90;;;;;;5044689;28;20056;-81
2022/05/21 07:15:32;;;;;;;9.18;4.85;;;15.00;99.90;;;;;;5038103;28;20392;-80
2022/05/21 07:18:00;;;;;;;7.55;5.43;;;14.90;99.90;;;;;;5019225;28;20124;-81
2022/05/21 07:20:26;;;;;;;10.57;4.82;;;14.70;99.90;;;;;;5041458;28;20484;-79
2022/05/21 07:22:52;;;;;;;8.88;5.00;;;14.70;99.90;;;;;;5036396;28;20088;-81
2022/05/21 07:25:21;;;;;;;8.88;5.40;;;15.10;99.90;;;;;;5029997;28;20104;-80
2022/05/21 07:27:47;;;;;;;7.72;3.95;;;14.90;99.90;;;;;;5038525;28;20110;-80
2022/05/21 07:30:13;;;;;;;7.20;4.68;;;14.80;97.40;;;;;;5029721;28;20030;-81
2022/05/21 07:32:40;;;;;;;9.95;3.97;;;15.00;99.90;;;;;;5024011;28;20080;-81
2022/05/21 07:35:09;;;;;;;7.13;4.60;;;15.30;99.90;;;;;;5028847;28;20183;-80
2022/05/21 07:37:35;;;;;;;7.03;4.57;;;15.30;99.90;;;;;;5024160;28;20025;-80
2022/05/21 07:40:02;;;;;;;6.65;4.10;;;15.30;99.90;;;;;;5045024;28;20025;-82
2022/05/21 07:42:28;;;;;;;7.93;3.50;;;15.40;94.90;;;;;;5044383;28;20086;-82
2022/05/21 07:44:53;;;;;;;7.07;3.90;;;15.40;96.20;;;;;;5043344;28;20105;-87
2022/05/21 07:47:23;;;;;;;9.55;4.03;;;15.70;99.90;;;;;;5042625;28;20577;-82
2022/05/21 07:49:51;;;;;;;3.97;2.75;;;15.90;96.00;;;;;;5037656;28;20107;-82
2022/05/21 07:52:20;;;;;;;4.07;2.92;;;16.30;84.70;;;;;;5033046;28;20029;-82
2022/05/21 07:54:46;;;;;;;4.75;2.70;;;16.70;92.00;;;;;;5030457;28;20417;-82
2022/05/21 07:57:12;;;;;;;4.28;2.80;;;16.80;90.60;;;;;;5035107;28;20472;-83
2022/05/21 07:59:38;;;;;;;5.18;3.33;;;16.70;87.00;;;;;;5033368;28;20111;-82
2022/05/21 08:02:05;;;;;;;5.00;2.55;;;17.10;88.60;;;;;;5030991;28;20407;-82
2022/05/21 08:04:30;;;;;;;4.80;2.83;;;17.10;71.00;;;;;;5023942;28;20029;-82
2022/05/21 08:06:56;;;;;;;5.13;3.03;;;17.30;76.70;;;;;;5022929;28;20072;-84
2022/05/21 08:09:22;;;;;;;4.78;3.35;;;17.50;79.70;;;;;;5056890;28;20029;-82
2022/05/21 08:11:48;;;;;;;4.40;3.22;;;17.60;73.90;;;;;;5036830;28;20488;-82
2022/05/21 08:14:13;;;;;;;6.78;3.13;;;17.70;70.40;;;;;;5056571;28;20426;-82
2022/05/21 08:16:39;;;;;;;6.47;3.33;;;18.00;73.10;;;;;;5032363;28;20557;-79
2022/05/21 08:19:05;;;;;;;6.90;3.50;;;18.00;68.30;;;;;;5026003;28;20681;-78
2022/05/21 08:21:31;;;;;;;5.45;2.75;;;18.00;67.20;;;;;;5032005;28;20535;-79
2022/05/21 08:29:27;;;;;;;5.55;2.70;;;18.20;70.00;;;;;;5032760;28;20511;-78
2022/05/21 08:31:54;;;;;;;4.43;2.55;;;18.30;63.30;;;;;;5025188;28;20096;-79
2022/05/21 08:34:20;;;;;;;4.35;2.55;;;18.30;65.20;;;;;;5031710;28;20033;-77
2022/05/21 08:36:46;;;;;;;4.00;2.72;;;18.30;64.80;;;;;;5027308;28;20039;-78
2022/05/21 08:39:11;;;;;;;4.47;2.92;;;18.40;64.60;;;;;;5066506;28;20021;-78
2022/05/21 08:41:45;;;;;;;5.68;3.30;;;18.80;71.50;;;;;;5044721;28;20029;-79
2022/05/21 08:44:13;;;;;;;5.18;3.22;;;18.80;65.30;;;;;;5033864;28;20043;-79
2022/05/21 08:46:58;;;;;;;6.40;3.70;;;18.80;69.20;;;;;;5034505;28;20095;-79
2022/05/21 08:49:46;;;;;;;4.07;3.20;;;18.80;65.60;;;;;;5030124;28;20058;-78
2022/05/21 08:52:37;;;;;;;5.10;2.95;;;18.80;64.30;;;;;;5028199;28;20140;-79
2022/05/21 08:55:06;;;;;;;3.45;2.40;;;19.20;64.50;;;;;;5029064;28;20053;-78
2022/05/21 08:57:54;;;;;;;7.45;2.35;;;19.50;64.80;;;;;;5027522;28;20045;-78
2022/05/21 09:00:33;;;;;;;3.53;2.50;;;19.50;61.20;;;;;;5033722;28;20110;-80
2022/05/21 09:02:59;;;;;;;2.80;2.50;;;19.60;55.40;;;;;;5033380;28;20017;-78
2022/05/21 09:05:25;;;;;;;3.05;2.28;;;19.60;57.10;;;;;;5030111;28;20035;-82
2022/05/21 09:08:02;;;;;;;12.43;2.53;;;19.50;54.20;;;;;;5024465;28;20117;-80
2022/05/21 09:10:55;;;;;;;6.57;2.47;;;19.40;55.00;;;;;;5027678;28;20504;-80
2022/05/21 09:14:00;;;;;;;3.05;2.47;;;19.50;57.00;;;;;;5021706;28;20062;-80
2022/05/21 09:19:10;;;;;;;2.83;2.05;;;19.90;52.80;;;;;;5020523;28;20040;-79
2022/05/21 09:21:45;;;;;;;3.65;2.40;;;20.20;53.70;;;;;;5032724;28;20025;-80
2022/05/21 09:24:41;;;;;;;3.78;2.58;;;20.00;54.00;;;;;;5031066;28;20060;-79
2022/05/21 09:27:33;;;;;;;2.78;1.73;;;19.70;54.20;;;;;;5027514;28;20025;-82
2022/05/21 09:30:20;;;;;;;1.70;1.60;;;20.10;49.10;;;;;;5030327;28;20033;-80
2022/05/21 09:32:52;;;;;;;4.15;2.17;;;20.00;49.30;;;;;;5029072;28;20500;-80
2022/05/21 09:35:21;;;;;;;3.75;2.03;;;20.00;48.60;;;;;;5025851;28;20029;-82
2022/05/21 09:37:47;;;;;;;2.60;2.40;;;20.00;49.70;;;;;;5028540;28;20082;-82
2022/05/21 09:40:22;;;;;;;2.75;2.30;;;20.10;50.30;;;;;;5045438;28;20120;-82
2022/05/21 09:45:36;;;;;;;3.03;2.50;;;20.40;50.80;;;;;;5030878;28;20060;-82
2022/05/21 09:48:06;;;;;;;4.20;2.47;;;20.30;50.70;;;;;;5033032;28;20045;-82
2022/05/21 09:50:53;;;;;;;3.13;2.78;;;20.60;52.10;;;;;;5036610;28;20044;-82
2022/05/21 09:53:39;;;;;;;3.28;2.67;;;20.90;52.10;;;;;;5031971;28;20130;-81
2022/05/21 09:56:17;;;;;;;6.45;2.22;;;20.80;50.70;;;;;;5033044;28;20044;-83
2022/05/21 09:58:44;;;;;;;3.67;1.92;;;21.10;49.50;;;;;;5033493;28;20017;-82
2022/05/21 10:01:32;;;;;;;4.05;2.20;;;21.40;48.20;;;;;;5034401;28;20037;-82
2022/05/21 10:04:00;;;;;;;4.45;2.53;;;21.10;49.40;;;;;;5016456;28;20151;-82
2022/05/21 10:06:37;;;;;;;5.53;2.20;;;20.90;51.70;;;;;;5027434;28;20033;-82
2022/05/21 10:12:05;;;;;;;6.18;2.47;;;21.60;49.70;;;;;;5017096;28;20083;-82
2022/05/21 10:14:48;;;;;;;1.95;1.67;;;21.80;47.50;;;;;;5028461;28;20026;-82
2022/05/21 10:17:36;;;;;;;2.33;1.80;;;21.50;47.10;;;;;;5023984;28;20049;-83
2022/05/21 10:20:08;;;;;;;3.05;1.83;;;21.50;44.90;;;;;;5017695;28;20029;-83
2022/05/21 10:22:47;;;;;;;3.58;2.03;;;21.60;47.40;;;;;;5019964;28;20018;-82
2022/05/21 10:25:19;;;;;;;4.00;1.95;;;21.90;47.80;;;;;;5026918;28;20036;-82
2022/05/21 10:28:13;;;;;;;4.20;1.88;;;21.70;44.50;;;;;;5012413;28;20034;-82
2022/05/21 10:31:07;;;;;;;3.25;1.80;;;21.50;43.20;;;;;;5027099;28;20038;-82
2022/05/21 10:33:43;;;;;;;2.78;1.60;;;22.20;44.90;;;;;;5039057;28;20021;-82
2022/05/21 10:36:26;;;;;;;3.25;1.95;;;22.20;49.80;;;;;;5025711;28;20014;-82
2022/05/21 10:39:19;;;;;;;3.58;1.98;;;21.90;45.10;;;;;;5042235;28;20025;-87
2022/05/21 10:42:00;;;;;;;3.15;2.58;;;22.00;49.40;;;;;;5043620;28;20053;-82
2022/05/21 10:44:52;;;;;;;2.63;2.42;;;22.30;49.10;;;;;;5041253;28;20033;-83
2022/05/21 10:47:23;;;;;;;4.97;2.83;;;22.50;49.80;;;;;;5041676;28;20030;-82
2022/05/21 10:50:05;;;;;;;2.65;2.25;;;22.40;47.70;;;;;;5035697;28;20276;-84
2022/05/21 10:52:52;;;;;;;2.55;2.20;;;23.10;49.50;;;;;;5066727;28;20568;-83
2022/05/21 10:55:32;;;;;;;3.05;2.60;;;23.70;49.40;;;;;;5037649;28;20488;-82
2022/05/21 10:58:38;;;;;;;9.75;5.15;;;23.70;42.70;;;;;;5033447;28;20087;-83
2022/05/21 11:01:14;;;;;;;3.70;2.30;;;23.70;44.30;;;;;;5030788;28;20029;-84
2022/05/21 11:03:50;;;;;;;2.70;2.45;;;24.20;43.70;;;;;;5030330;28;20440;-82
2022/05/21 11:06:34;;;;;;;3.35;2.13;;;24.30;41.00;;;;;;5030011;28;20560;-83
2022/05/21 11:09:18;;;;;;;3.67;2.22;;;24.90;40.40;;;;;;5043056;28;20028;-83
2022/05/21 11:12:07;;;;;;;2.85;1.80;;;24.50;38.50;;;;;;5020887;28;20025;-82
2022/05/21 11:15:03;;;;;;;5.50;2.08;;;25.00;38.50;;;;;;5027457;28;20348;-83
2022/05/21 11:17:41;;;;;;;3.13;2.38;;;25.50;41.10;;;;;;5027336;28;20528;-82
2022/05/21 11:20:20;;;;;;;1.95;1.77;;;26.00;41.40;;;;;;5017556;28;20084;-83
2022/05/21 11:22:54;;;;;;;;;;;27.00;38.30;;;;;;5023503;28;20045;-82
2022/05/21 11:25:32;;;;;;;3.20;2.20;;;26.40;35.10;;;;;;5028734;28;19909;-82
2022/05/21 11:28:17;;;;;;;3.17;1.90;;;26.00;34.70;;;;;;5027223;28;20025;-82
2022/05/21 11:30:43;;;;;;;2.35;1.80;;;25.60;37.00;;;;;;5029365;28;20050;-83
2022/05/21 11:38:51;;;;;;;1.80;1.67;;;25.90;35.10;;;;;;5043317;28;20051;-84
2022/05/21 11:41:25;;;;;;;2.10;1.75;;;25.90;39.80;;;;;;5040554;28;20124;-81
2022/05/21 11:44:55;;;;;;;3.30;1.90;;;26.30;36.10;;;;;;5037253;28;20041;-82
2022/05/21 11:46:51;;;;;;;2.95;1.80;;;26.40;35.50;;;;;;5041183;28;20036;-82
2022/05/21 11:49:40;;;;;;;1.90;1.70;;;26.90;35.00;;;;;;5029678;28;20044;-85
2022/05/21 11:52:30;;;;;;;4.45;2.03;;;26.60;31.80;;;;;;5018358;28;20116;-82
2022/05/21 11:55:10;;;;;;;1.98;1.60;;;27.00;33.70;;;;;;5034308;28;20082;-82
2022/05/21 11:57:46;;;;;;;3.13;1.77;;;27.00;31.90;;;;;;5035274;28;20033;-82
2022/05/21 12:00:17;;;;;;;2.63;1.73;;;28.20;30.80;;;;;;5034146;28;20037;-81
2022/05/21 12:03:04;;;;;;;4.68;1.73;;;28.60;32.50;;;;;;5032214;28;20413;-82
2022/05/21 12:05:35;;;;;;;3.60;1.75;;;27.40;28.80;;;;;;5035177;28;20144;-82
2022/05/21 12:08:12;;;;;;;3.30;1.63;;;27.60;29.60;;;;;;5038792;28;20017;-88
2022/05/21 12:10:58;;;;;;;1.45;1.35;;;26.60;30.10;;;;;;5044848;28;20052;-83
2022/05/21 12:13:36;;;;;;;5.00;1.60;;;27.10;32.20;;;;;;5045358;28;20022;-82
2022/05/21 12:16:22;;;;;;;2.42;1.70;;;27.90;30.90;;;;;;5040506;28;20739;-83
2022/05/21 12:18:52;;;;;;;4.07;1.55;;;28.40;31.80;;;;;;5021772;28;20497;-78
2022/05/21 12:21:34;;;;;;;;;;;28.20;28.50;;;;;;5032187;28;20540;-83
2022/05/21 12:24:20;;;;;;;4.25;1.50;;;27.70;29.40;;;;;;5022236;28;20446;-79
2022/05/21 12:26:47;;;;;;;2.05;1.40;;;27.90;29.60;;;;;;5022403;28;20064;-80
2022/05/21 12:29:24;;;;;;;1.67;1.38;;;28.10;30.30;;;;;;5027519;28;20786;-80
2022/05/21 12:31:54;;;;;;;2.15;1.10;;;28.70;27.10;;;;;;5031623;28;20045;-80
2022/05/21 12:34:29;;;;;;;1.35;1.25;;;29.60;26.20;;;;;;5030236;28;20163;-79
2022/05/21 12:36:58;;;;;;;1.92;1.35;;;29.80;28.10;;;;;;5033986;28;20041;-81
2022/05/21 12:39:33;;;;;;;1.58;1.27;;;28.30;26.70;;;;;;5047465;28;20039;-80
2022/05/21 12:42:20;;;;;;;2.67;1.20;;;28.50;26.40;;;;;;5035248;28;20061;-80
2022/05/21 12:44:47;;;;;;;1.30;1.20;;;28.90;26.10;;;;;;5034193;28;20025;-80
2022/05/21 12:47:26;;;;;;;3.08;1.23;;;28.30;26.90;;;;;;5030058;28;20061;-78
2022/05/21 12:49:52;;;;;;;1.48;1.00;;;28.20;26.90;;;;;;5029516;28;20025;-81
2022/05/21 12:52:22;;;;;;;1.38;1.02;;;28.50;27.80;;;;;;5034091;28;20076;-80
2022/05/21 12:54:49;;;;;;;1.45;1.20;;;29.30;25.80;;;;;;5027557;28;20085;-80
2022/05/21 12:57:17;;;;;;;1.35;1.00;;;29.10;26.50;;;;;;5063996;28;20041;-80
2022/05/21 12:59:42;;;;;;;1.20;1.10;;;29.00;25.40;;;;;;5030651;28;20029;-79
2022/05/21 13:02:17;;;;;;;1.20;1.10;;;28.60;26.70;;;;;;5028634;28;20034;-80
2022/05/21 13:04:46;;;;;;;2.42;1.13;;;28.10;26.00;;;;;;5026217;28;20034;-78
2022/05/21 13:07:22;;;;;;;2.03;1.02;;;28.40;28.10;;;;;;5028481;28;20021;-78
2022/05/21 13:10:02;;;;;;;3.15;1.13;;;28.70;26.10;;;;;;5041097;28;20028;-86
2022/05/21 13:12:41;;;;;;;2.78;0.90;;;28.90;26.30;;;;;;5043217;28;20048;-79
2022/05/21 13:15:18;;;;;;;0.98;0.90;;;29.80;25.30;;;;;;5025224;28;20032;-79
2022/05/21 13:18:15;;;;;;;1.40;1.08;;;30.50;26.20;;;;;;5030150;28;20833;-79
2022/05/21 13:21:23;;;;;;;0.90;0.88;;;30.90;23.40;;;;;;5030088;28;20037;-80
2022/05/21 13:24:02;;;;;;;1.85;0.90;;;30.50;22.30;;;;;;5034239;28;20033;-78
2022/05/21 13:26:31;;;;;;;2.50;0.93;;;30.20;21.80;;;;;;5033560;28;20448;-80
2022/05/21 13:29:26;;;;;;;2.00;0.93;;;29.90;21.40;;;;;;5032805;28;20067;-79
2022/05/21 13:31:53;;;;;;;2.72;0.85;;;30.80;22.10;;;;;;5034971;28;20123;-78
2022/05/21 13:34:34;;;;;;;1.73;0.80;;;30.20;21.00;;;;;;5026248;28;20029;-78